sensor_id;sensor_type;location;lat;lon;timestamp;temperature;humidity
43920;DHT22;29578;51.946;5.874;2023-10-08T00:00:25;17.90;85.10
43920;DHT22;29578;51.946;5.874;2023-10-08T00:03:09;17.90;85.20
43920;DHT22;29578;51.946;5.874;2023-10-08T00:05:37;17.80;85.20
43920;DHT22;29578;51.946;5.874;2023-10-08T00:08:06;17.80;85.20
43920;DHT22;29578;51.946;5.874;2023-10-08T00:10:40;17.80;85.30
43920;DHT22;29578;51.946;5.874;2023-10-08T00:13:08;17.80;85.40
43920;DHT22;29578;51.946;5.874;2023-10-08T00:15:36;17.80;85.40
43920;DHT22;29578;51.946;5.874;2023-10-08T00:18:06;17.80;85.50
43920;DHT22;29578;51.946;5.874;2023-10-08T00:20:33;17.80;85.60
43920;DHT22;29578;51.946;5.874;2023-10-08T00:23:02;17.80;85.60
43920;DHT22;29578;51.946;5.874;2023-10-08T00:25:33;17.80;85.70
43920;DHT22;29578;51.946;5.874;2023-10-08T00:27:59;17.70;85.70
43920;DHT22;29578;51.946;5.874;2023-10-08T00:30:27;17.70;85.80
43920;DHT22;29578;51.946;5.874;2023-10-08T00:32:53;17.70;85.90
43920;DHT22;29578;51.946;5.874;2023-10-08T00:35:18;17.70;86.00
43920;DHT22;29578;51.946;5.874;2023-10-08T00:37:46;17.70;86.00
43920;DHT22;29578;51.946;5.874;2023-10-08T00:40:14;17.70;86.00
43920;DHT22;29578;51.946;5.874;2023-10-08T00:42:47;17.70;86.10
43920;DHT22;29578;51.946;5.874;2023-10-08T00:45:12;17.70;86.10
43920;DHT22;29578;51.946;5.874;2023-10-08T00:47:40;17.70;86.20
43920;DHT22;29578;51.946;5.874;2023-10-08T00:50:10;17.70;86.30
43920;DHT22;29578;51.946;5.874;2023-10-08T00:52:45;17.70;86.30
43920;DHT22;29578;51.946;5.874;2023-10-08T00:55:23;17.70;86.40
43920;DHT22;29578;51.946;5.874;2023-10-08T00:57:57;17.60;86.30
43920;DHT22;29578;51.946;5.874;2023-10-08T01:00:25;17.60;86.40
43920;DHT22;29578;51.946;5.874;2023-10-08T01:02:59;17.60;86.50
43920;DHT22;29578;51.946;5.874;2023-10-08T01:05:26;17.60;86.60
43920;DHT22;29578;51.946;5.874;2023-10-08T01:08:04;17.60;86.60
43920;DHT22;29578;51.946;5.874;2023-10-08T01:10:31;17.60;86.70
43920;DHT22;29578;51.946;5.874;2023-10-08T01:12:58;17.60;86.80
43920;DHT22;29578;51.946;5.874;2023-10-08T01:15:31;17.60;86.80
43920;DHT22;29578;51.946;5.874;2023-10-08T01:18:01;17.60;86.80
43920;DHT22;29578;51.946;5.874;2023-10-08T01:20:29;17.60;86.80
43920;DHT22;29578;51.946;5.874;2023-10-08T01:23:08;17.60;86.90
43920;DHT22;29578;51.946;5.874;2023-10-08T01:25:39;17.60;86.90
43920;DHT22;29578;51.946;5.874;2023-10-08T01:28:06;17.50;86.90
43920;DHT22;29578;51.946;5.874;2023-10-08T01:30:45;17.60;87.00
43920;DHT22;29578;51.946;5.874;2023-10-08T01:33:13;17.60;87.00
43920;DHT22;29578;51.946;5.874;2023-10-08T01:35:41;17.50;87.00
43920;DHT22;29578;51.946;5.874;2023-10-08T01:38:06;17.60;87.20
43920;DHT22;29578;51.946;5.874;2023-10-08T01:40:33;17.50;87.10
43920;DHT22;29578;51.946;5.874;2023-10-08T01:42:59;17.50;87.20
43920;DHT22;29578;51.946;5.874;2023-10-08T01:45:26;17.50;87.20
43920;DHT22;29578;51.946;5.874;2023-10-08T01:47:52;17.50;87.30
43920;DHT22;29578;51.946;5.874;2023-10-08T01:50:20;17.50;87.30
43920;DHT22;29578;51.946;5.874;2023-10-08T01:52:51;17.50;87.40
43920;DHT22;29578;51.946;5.874;2023-10-08T01:55:17;17.50;87.40
43920;DHT22;29578;51.946;5.874;2023-10-08T01:57:46;17.40;87.40
43920;DHT22;29578;51.946;5.874;2023-10-08T02:00:12;17.50;87.50
43920;DHT22;29578;51.946;5.874;2023-10-08T02:02:47;17.40;87.60
43920;DHT22;29578;51.946;5.874;2023-10-08T02:05:13;17.40;87.60
43920;DHT22;29578;51.946;5.874;2023-10-08T02:07:41;17.40;87.70
43920;DHT22;29578;51.946;5.874;2023-10-08T02:10:10;17.40;87.70
43920;DHT22;29578;51.946;5.874;2023-10-08T02:12:37;17.40;87.80
43920;DHT22;29578;51.946;5.874;2023-10-08T02:15:06;17.30;87.90
43920;DHT22;29578;51.946;5.874;2023-10-08T02:17:33;17.30;87.90
43920;DHT22;29578;51.946;5.874;2023-10-08T02:19:58;17.30;88.00
43920;DHT22;29578;51.946;5.874;2023-10-08T02:22:24;17.40;88.10
43920;DHT22;29578;51.946;5.874;2023-10-08T02:24:50;17.30;88.10
43920;DHT22;29578;51.946;5.874;2023-10-08T02:27:16;17.20;88.10
43920;DHT22;29578;51.946;5.874;2023-10-08T02:29:42;17.20;88.10
43920;DHT22;29578;51.946;5.874;2023-10-08T02:32:08;17.20;88.10
43920;DHT22;29578;51.946;5.874;2023-10-08T02:34:34;17.30;88.20
43920;DHT22;29578;51.946;5.874;2023-10-08T02:37:01;17.20;88.20
43920;DHT22;29578;51.946;5.874;2023-10-08T02:39:29;17.30;88.20
43920;DHT22;29578;51.946;5.874;2023-10-08T02:41:57;17.20;88.20
43920;DHT22;29578;51.946;5.874;2023-10-08T02:44:25;17.20;88.20
43920;DHT22;29578;51.946;5.874;2023-10-08T02:46:51;17.20;88.20
43920;DHT22;29578;51.946;5.874;2023-10-08T02:49:19;17.20;88.30
43920;DHT22;29578;51.946;5.874;2023-10-08T02:51:47;17.00;88.20
43920;DHT22;29578;51.946;5.874;2023-10-08T02:54:16;17.10;88.30
43920;DHT22;29578;51.946;5.874;2023-10-08T02:56:45;17.00;88.40
43920;DHT22;29578;51.946;5.874;2023-10-08T02:59:12;17.10;88.50
43920;DHT22;29578;51.946;5.874;2023-10-08T03:01:39;17.00;88.50
43920;DHT22;29578;51.946;5.874;2023-10-08T03:04:07;17.00;88.50
43920;DHT22;29578;51.946;5.874;2023-10-08T03:06:43;17.00;88.50
43920;DHT22;29578;51.946;5.874;2023-10-08T03:09:10;17.00;88.40
43920;DHT22;29578;51.946;5.874;2023-10-08T03:11:39;17.00;88.40
43920;DHT22;29578;51.946;5.874;2023-10-08T03:14:06;17.10;88.60
43920;DHT22;29578;51.946;5.874;2023-10-08T03:16:40;16.90;88.60
43920;DHT22;29578;51.946;5.874;2023-10-08T03:19:13;16.90;88.60
43920;DHT22;29578;51.946;5.874;2023-10-08T03:21:39;16.90;88.70
43920;DHT22;29578;51.946;5.874;2023-10-08T03:24:14;16.90;88.70
43920;DHT22;29578;51.946;5.874;2023-10-08T03:26:58;16.90;88.70
43920;DHT22;29578;51.946;5.874;2023-10-08T03:29:37;16.90;88.70
43920;DHT22;29578;51.946;5.874;2023-10-08T03:32:09;16.90;88.70
43920;DHT22;29578;51.946;5.874;2023-10-08T03:34:40;16.80;88.70
43920;DHT22;29578;51.946;5.874;2023-10-08T03:37:09;16.80;88.70
43920;DHT22;29578;51.946;5.874;2023-10-08T03:39:40;16.80;88.70
43920;DHT22;29578;51.946;5.874;2023-10-08T03:42:20;16.90;88.80
43920;DHT22;29578;51.946;5.874;2023-10-08T03:44:49;16.80;88.70
43920;DHT22;29578;51.946;5.874;2023-10-08T03:47:18;16.90;88.70
43920;DHT22;29578;51.946;5.874;2023-10-08T03:49:46;16.90;88.70
43920;DHT22;29578;51.946;5.874;2023-10-08T03:52:17;16.90;88.70
43920;DHT22;29578;51.946;5.874;2023-10-08T03:54:44;16.90;88.90
43920;DHT22;29578;51.946;5.874;2023-10-08T03:57:14;16.80;88.80
43920;DHT22;29578;51.946;5.874;2023-10-08T03:59:44;16.80;88.80
43920;DHT22;29578;51.946;5.874;2023-10-08T04:02:14;16.90;88.90
43920;DHT22;29578;51.946;5.874;2023-10-08T04:04:42;16.80;88.80
43920;DHT22;29578;51.946;5.874;2023-10-08T04:07:19;16.80;88.90
43920;DHT22;29578;51.946;5.874;2023-10-08T04:09:56;16.80;88.90
43920;DHT22;29578;51.946;5.874;2023-10-08T04:12:42;16.80;88.90
43920;DHT22;29578;51.946;5.874;2023-10-08T04:15:10;16.80;88.90
43920;DHT22;29578;51.946;5.874;2023-10-08T04:17:38;16.80;88.90
43920;DHT22;29578;51.946;5.874;2023-10-08T04:20:17;16.80;88.90
43920;DHT22;29578;51.946;5.874;2023-10-08T04:22:52;16.80;88.90
43920;DHT22;29578;51.946;5.874;2023-10-08T04:25:19;16.80;89.00
43920;DHT22;29578;51.946;5.874;2023-10-08T04:27:45;16.80;89.00
43920;DHT22;29578;51.946;5.874;2023-10-08T04:30:15;16.80;89.00
43920;DHT22;29578;51.946;5.874;2023-10-08T04:32:42;16.80;89.00
43920;DHT22;29578;51.946;5.874;2023-10-08T04:35:08;16.80;89.60
43920;DHT22;29578;51.946;5.874;2023-10-08T04:37:40;16.90;89.10
43920;DHT22;29578;51.946;5.874;2023-10-08T04:40:07;16.80;89.00
43920;DHT22;29578;51.946;5.874;2023-10-08T04:42:41;16.80;89.00
43920;DHT22;29578;51.946;5.874;2023-10-08T04:45:10;16.80;89.70
43920;DHT22;29578;51.946;5.874;2023-10-08T04:47:40;16.80;89.10
43920;DHT22;29578;51.946;5.874;2023-10-08T04:50:08;16.80;89.10
43920;DHT22;29578;51.946;5.874;2023-10-08T04:52:40;16.80;89.10
43920;DHT22;29578;51.946;5.874;2023-10-08T04:55:13;16.80;89.10
43920;DHT22;29578;51.946;5.874;2023-10-08T04:57:45;16.80;89.10
43920;DHT22;29578;51.946;5.874;2023-10-08T05:00:11;16.80;89.20
43920;DHT22;29578;51.946;5.874;2023-10-08T05:02:40;16.70;89.20
43920;DHT22;29578;51.946;5.874;2023-10-08T05:05:15;16.70;89.30
43920;DHT22;29578;51.946;5.874;2023-10-08T05:07:55;16.60;89.30
43920;DHT22;29578;51.946;5.874;2023-10-08T05:10:26;16.60;89.40
43920;DHT22;29578;51.946;5.874;2023-10-08T05:13:09;16.50;89.60
43920;DHT22;29578;51.946;5.874;2023-10-08T05:15:43;16.40;89.60
43920;DHT22;29578;51.946;5.874;2023-10-08T05:18:29;16.20;89.70
43920;DHT22;29578;51.946;5.874;2023-10-08T05:21:15;16.30;89.90
43920;DHT22;29578;51.946;5.874;2023-10-08T05:23:52;16.20;89.90
43920;DHT22;29578;51.946;5.874;2023-10-08T05:26:34;16.20;90.00
43920;DHT22;29578;51.946;5.874;2023-10-08T05:29:08;16.10;90.00
43920;DHT22;29578;51.946;5.874;2023-10-08T05:31:54;16.10;90.00
43920;DHT22;29578;51.946;5.874;2023-10-08T05:34:40;16.10;90.00
43920;DHT22;29578;51.946;5.874;2023-10-08T05:37:21;16.00;90.00
43920;DHT22;29578;51.946;5.874;2023-10-08T05:39:58;16.00;90.10
43920;DHT22;29578;51.946;5.874;2023-10-08T05:42:44;15.90;90.00
43920;DHT22;29578;51.946;5.874;2023-10-08T05:45:12;16.00;90.10
43920;DHT22;29578;51.946;5.874;2023-10-08T05:47:40;15.90;90.00
43920;DHT22;29578;51.946;5.874;2023-10-08T05:50:17;15.80;90.00
43920;DHT22;29578;51.946;5.874;2023-10-08T05:52:59;15.80;90.10
43920;DHT22;29578;51.946;5.874;2023-10-08T05:55:40;15.80;90.10
43920;DHT22;29578;51.946;5.874;2023-10-08T05:58:13;15.70;90.10
43920;DHT22;29578;51.946;5.874;2023-10-08T06:00:43;15.80;90.10
43920;DHT22;29578;51.946;5.874;2023-10-08T06:03:29;15.60;90.20
43920;DHT22;29578;51.946;5.874;2023-10-08T06:06:02;15.60;90.10
43920;DHT22;29578;51.946;5.874;2023-10-08T06:08:48;15.50;90.10
43920;DHT22;29578;51.946;5.874;2023-10-08T06:11:17;15.50;90.10
43920;DHT22;29578;51.946;5.874;2023-10-08T06:13:58;15.40;90.10
43920;DHT22;29578;51.946;5.874;2023-10-08T06:16:26;15.40;90.10
43920;DHT22;29578;51.946;5.874;2023-10-08T06:19:07;15.30;90.10
43920;DHT22;29578;51.946;5.874;2023-10-08T06:21:36;15.20;90.10
43920;DHT22;29578;51.946;5.874;2023-10-08T06:24:04;15.20;90.20
43920;DHT22;29578;51.946;5.874;2023-10-08T06:26:41;15.10;90.10
43920;DHT22;29578;51.946;5.874;2023-10-08T06:29:10;15.10;90.20
43920;DHT22;29578;51.946;5.874;2023-10-08T06:31:45;15.00;90.20
43920;DHT22;29578;51.946;5.874;2023-10-08T06:34:17;15.00;90.20
43920;DHT22;29578;51.946;5.874;2023-10-08T06:36:47;15.00;90.10
43920;DHT22;29578;51.946;5.874;2023-10-08T06:39:13;14.90;90.10
43920;DHT22;29578;51.946;5.874;2023-10-08T06:41:45;14.90;90.10
43920;DHT22;29578;51.946;5.874;2023-10-08T06:44:12;14.90;90.10
43920;DHT22;29578;51.946;5.874;2023-10-08T06:46:44;14.90;90.10
43920;DHT22;29578;51.946;5.874;2023-10-08T06:49:31;14.90;90.10
43920;DHT22;29578;51.946;5.874;2023-10-08T06:52:02;14.90;90.00
43920;DHT22;29578;51.946;5.874;2023-10-08T06:54:42;14.80;90.00
43920;DHT22;29578;51.946;5.874;2023-10-08T06:57:08;14.90;90.00
43920;DHT22;29578;51.946;5.874;2023-10-08T06:59:39;14.80;90.00
43920;DHT22;29578;51.946;5.874;2023-10-08T07:02:08;14.80;90.00
43920;DHT22;29578;51.946;5.874;2023-10-08T07:04:35;14.80;90.00
43920;DHT22;29578;51.946;5.874;2023-10-08T07:07:01;14.80;90.00
43920;DHT22;29578;51.946;5.874;2023-10-08T07:09:26;14.80;89.90
43920;DHT22;29578;51.946;5.874;2023-10-08T07:11:59;14.80;89.80
43920;DHT22;29578;51.946;5.874;2023-10-08T07:14:30;14.80;89.90
43920;DHT22;29578;51.946;5.874;2023-10-08T07:16:58;14.80;89.80
43920;DHT22;29578;51.946;5.874;2023-10-08T07:19:29;14.80;89.70
43920;DHT22;29578;51.946;5.874;2023-10-08T07:22:07;14.80;89.70
43920;DHT22;29578;51.946;5.874;2023-10-08T07:24:43;14.80;89.70
43920;DHT22;29578;51.946;5.874;2023-10-08T07:27:11;14.80;89.60
43920;DHT22;29578;51.946;5.874;2023-10-08T07:29:37;14.90;89.60
43920;DHT22;29578;51.946;5.874;2023-10-08T07:32:12;14.90;89.50
43920;DHT22;29578;51.946;5.874;2023-10-08T07:34:38;14.90;89.40
43920;DHT22;29578;51.946;5.874;2023-10-08T07:37:04;14.90;89.50
43920;DHT22;29578;51.946;5.874;2023-10-08T07:39:32;14.90;89.40
43920;DHT22;29578;51.946;5.874;2023-10-08T07:42:10;14.90;89.40
43920;DHT22;29578;51.946;5.874;2023-10-08T07:44:39;14.90;89.30
43920;DHT22;29578;51.946;5.874;2023-10-08T07:47:08;14.90;89.30
43920;DHT22;29578;51.946;5.874;2023-10-08T07:49:38;14.90;89.30
43920;DHT22;29578;51.946;5.874;2023-10-08T07:52:08;14.90;89.20
43920;DHT22;29578;51.946;5.874;2023-10-08T07:54:34;15.00;89.20
43920;DHT22;29578;51.946;5.874;2023-10-08T07:57:02;14.90;89.20
43920;DHT22;29578;51.946;5.874;2023-10-08T07:59:37;15.00;89.20
43920;DHT22;29578;51.946;5.874;2023-10-08T08:02:06;15.00;89.10
43920;DHT22;29578;51.946;5.874;2023-10-08T08:04:38;15.10;89.10
43920;DHT22;29578;51.946;5.874;2023-10-08T08:07:06;15.10;89.00
43920;DHT22;29578;51.946;5.874;2023-10-08T08:09:31;15.10;88.80
43920;DHT22;29578;51.946;5.874;2023-10-08T08:12:05;15.20;88.70
43920;DHT22;29578;51.946;5.874;2023-10-08T08:14:37;15.20;88.70
43920;DHT22;29578;51.946;5.874;2023-10-08T08:17:07;15.20;88.80
43920;DHT22;29578;51.946;5.874;2023-10-08T08:19:43;15.20;88.80
43920;DHT22;29578;51.946;5.874;2023-10-08T08:22:10;15.30;89.00
43920;DHT22;29578;51.946;5.874;2023-10-08T08:24:41;15.10;88.90
43920;DHT22;29578;51.946;5.874;2023-10-08T08:27:11;15.20;88.90
43920;DHT22;29578;51.946;5.874;2023-10-08T08:29:51;15.20;89.00
43920;DHT22;29578;51.946;5.874;2023-10-08T08:32:21;15.20;89.00
43920;DHT22;29578;51.946;5.874;2023-10-08T08:34:48;15.10;89.00
43920;DHT22;29578;51.946;5.874;2023-10-08T08:37:17;15.30;89.10
43920;DHT22;29578;51.946;5.874;2023-10-08T08:39:43;15.10;89.10
43920;DHT22;29578;51.946;5.874;2023-10-08T08:42:09;15.10;89.10
43920;DHT22;29578;51.946;5.874;2023-10-08T08:44:37;15.00;89.20
43920;DHT22;29578;51.946;5.874;2023-10-08T08:47:14;15.10;89.40
43920;DHT22;29578;51.946;5.874;2023-10-08T08:49:44;15.00;89.50
43920;DHT22;29578;51.946;5.874;2023-10-08T08:52:11;15.00;89.50
43920;DHT22;29578;51.946;5.874;2023-10-08T08:54:39;15.00;89.50
43920;DHT22;29578;51.946;5.874;2023-10-08T08:57:10;15.00;89.30
43920;DHT22;29578;51.946;5.874;2023-10-08T08:59:46;15.00;89.30
43920;DHT22;29578;51.946;5.874;2023-10-08T09:02:14;15.20;89.40
43920;DHT22;29578;51.946;5.874;2023-10-08T09:04:41;15.10;89.20
43920;DHT22;29578;51.946;5.874;2023-10-08T09:07:07;15.10;89.20
43920;DHT22;29578;51.946;5.874;2023-10-08T09:09:34;15.10;89.20
43920;DHT22;29578;51.946;5.874;2023-10-08T09:12:05;15.10;89.30
43920;DHT22;29578;51.946;5.874;2023-10-08T09:14:34;15.10;89.20
43920;DHT22;29578;51.946;5.874;2023-10-08T09:17:01;15.30;89.10
43920;DHT22;29578;51.946;5.874;2023-10-08T09:19:35;15.30;89.10
43920;DHT22;29578;51.946;5.874;2023-10-08T09:22:05;15.30;88.90
43920;DHT22;29578;51.946;5.874;2023-10-08T09:24:35;15.40;88.80
43920;DHT22;29578;51.946;5.874;2023-10-08T09:27:07;15.50;88.70
43920;DHT22;29578;51.946;5.874;2023-10-08T09:29:33;15.50;88.60
43920;DHT22;29578;51.946;5.874;2023-10-08T09:32:07;15.60;88.40
43920;DHT22;29578;51.946;5.874;2023-10-08T09:34:39;15.70;88.30
43920;DHT22;29578;51.946;5.874;2023-10-08T09:37:05;15.70;88.10
43920;DHT22;29578;51.946;5.874;2023-10-08T09:39:36;15.70;88.00
43920;DHT22;29578;51.946;5.874;2023-10-08T09:42:06;15.80;88.00
43920;DHT22;29578;51.946;5.874;2023-10-08T09:44:32;15.70;87.90
43920;DHT22;29578;51.946;5.874;2023-10-08T09:47:03;15.80;87.90
43920;DHT22;29578;51.946;5.874;2023-10-08T09:49:32;15.80;87.90
43920;DHT22;29578;51.946;5.874;2023-10-08T09:52:02;15.80;87.80
43920;DHT22;29578;51.946;5.874;2023-10-08T09:57:17;15.90;87.60
43920;DHT22;29578;51.946;5.874;2023-10-08T09:59:45;16.00;87.50
43920;DHT22;29578;51.946;5.874;2023-10-08T10:02:12;16.00;87.40
43920;DHT22;29578;51.946;5.874;2023-10-08T10:04:44;16.10;87.20
43920;DHT22;29578;51.946;5.874;2023-10-08T10:07:12;16.10;87.00
43920;DHT22;29578;51.946;5.874;2023-10-08T10:09:43;16.20;87.00
43920;DHT22;29578;51.946;5.874;2023-10-08T10:12:11;16.20;86.80
43920;DHT22;29578;51.946;5.874;2023-10-08T10:14:53;16.30;86.80
43920;DHT22;29578;51.946;5.874;2023-10-08T10:17:24;16.30;86.80
43920;DHT22;29578;51.946;5.874;2023-10-08T10:20:01;16.40;86.70
43920;DHT22;29578;51.946;5.874;2023-10-08T10:22:29;16.30;86.60
43920;DHT22;29578;51.946;5.874;2023-10-08T10:24:56;16.40;86.60
43920;DHT22;29578;51.946;5.874;2023-10-08T10:27:22;16.50;86.50
43920;DHT22;29578;51.946;5.874;2023-10-08T10:29:48;16.50;86.40
43920;DHT22;29578;51.946;5.874;2023-10-08T10:32:15;16.60;86.30
43920;DHT22;29578;51.946;5.874;2023-10-08T10:34:43;16.60;86.10
43920;DHT22;29578;51.946;5.874;2023-10-08T10:37:10;16.70;86.10
43920;DHT22;29578;51.946;5.874;2023-10-08T10:39:53;16.80;85.90
43920;DHT22;29578;51.946;5.874;2023-10-08T10:42:21;16.80;85.90
43920;DHT22;29578;51.946;5.874;2023-10-08T10:44:48;16.80;85.80
43920;DHT22;29578;51.946;5.874;2023-10-08T10:47:17;16.80;85.70
43920;DHT22;29578;51.946;5.874;2023-10-08T10:49:59;16.80;85.70
43920;DHT22;29578;51.946;5.874;2023-10-08T10:52:46;16.90;85.80
43920;DHT22;29578;51.946;5.874;2023-10-08T10:55:18;16.90;85.80
43920;DHT22;29578;51.946;5.874;2023-10-08T10:57:52;17.00;85.70
43920;DHT22;29578;51.946;5.874;2023-10-08T11:00:23;17.10;85.60
43920;DHT22;29578;51.946;5.874;2023-10-08T11:03:09;17.10;85.40
43920;DHT22;29578;51.946;5.874;2023-10-08T11:05:43;17.20;85.30
43920;DHT22;29578;51.946;5.874;2023-10-08T11:08:15;17.20;85.30
43920;DHT22;29578;51.946;5.874;2023-10-08T11:10:43;17.20;85.20
43920;DHT22;29578;51.946;5.874;2023-10-08T11:13:17;17.30;85.10
43920;DHT22;29578;51.946;5.874;2023-10-08T11:15:48;17.40;85.00
43920;DHT22;29578;51.946;5.874;2023-10-08T11:18:18;17.40;84.90
43920;DHT22;29578;51.946;5.874;2023-10-08T11:20:44;17.40;84.80
43920;DHT22;29578;51.946;5.874;2023-10-08T11:23:11;17.40;84.90
43920;DHT22;29578;51.946;5.874;2023-10-08T11:26:00;17.40;85.00
43920;DHT22;29578;51.946;5.874;2023-10-08T11:28:29;17.40;85.00
43920;DHT22;29578;51.946;5.874;2023-10-08T11:30:55;17.50;85.00
43920;DHT22;29578;51.946;5.874;2023-10-08T11:33:24;17.60;85.00
43920;DHT22;29578;51.946;5.874;2023-10-08T11:36:09;17.50;84.80
43920;DHT22;29578;51.946;5.874;2023-10-08T11:38:44;17.60;84.80
43920;DHT22;29578;51.946;5.874;2023-10-08T11:41:15;17.60;84.90
43920;DHT22;29578;51.946;5.874;2023-10-08T11:43:49;17.50;84.90
43920;DHT22;29578;51.946;5.874;2023-10-08T11:46:22;17.50;85.10
43920;DHT22;29578;51.946;5.874;2023-10-08T11:48:51;17.50;85.20
43920;DHT22;29578;51.946;5.874;2023-10-08T11:51:17;17.50;85.20
43920;DHT22;29578;51.946;5.874;2023-10-08T11:53:44;17.60;85.20
43920;DHT22;29578;51.946;5.874;2023-10-08T11:56:11;17.60;85.00
43920;DHT22;29578;51.946;5.874;2023-10-08T11:58:40;17.60;84.90
43920;DHT22;29578;51.946;5.874;2023-10-08T12:01:11;17.60;84.80
43920;DHT22;29578;51.946;5.874;2023-10-08T12:03:42;17.50;85.40
43920;DHT22;29578;51.946;5.874;2023-10-08T12:06:10;17.60;85.00
43920;DHT22;29578;51.946;5.874;2023-10-08T12:08:41;17.50;85.00
43920;DHT22;29578;51.946;5.874;2023-10-08T12:11:07;17.50;85.10
43920;DHT22;29578;51.946;5.874;2023-10-08T12:13:38;17.50;85.20
43920;DHT22;29578;51.946;5.874;2023-10-08T12:16:04;17.40;85.30
43920;DHT22;29578;51.946;5.874;2023-10-08T12:18:48;17.50;85.50
43920;DHT22;29578;51.946;5.874;2023-10-08T12:21:19;17.30;85.60
43920;DHT22;29578;51.946;5.874;2023-10-08T12:23:44;17.30;85.60
43920;DHT22;29578;51.946;5.874;2023-10-08T12:26:13;17.40;85.50
43920;DHT22;29578;51.946;5.874;2023-10-08T12:28:42;17.40;85.40
43920;DHT22;29578;51.946;5.874;2023-10-08T12:31:12;17.40;85.30
43920;DHT22;29578;51.946;5.874;2023-10-08T12:33:38;17.50;85.40
43920;DHT22;29578;51.946;5.874;2023-10-08T12:36:05;17.50;85.40
43920;DHT22;29578;51.946;5.874;2023-10-08T12:38:37;17.50;85.30
43920;DHT22;29578;51.946;5.874;2023-10-08T12:41:03;17.40;85.30
43920;DHT22;29578;51.946;5.874;2023-10-08T12:43:39;17.50;85.20
43920;DHT22;29578;51.946;5.874;2023-10-08T12:46:08;17.50;85.20
43920;DHT22;29578;51.946;5.874;2023-10-08T12:48:41;17.60;85.20
43920;DHT22;29578;51.946;5.874;2023-10-08T12:51:09;17.60;85.20
43920;DHT22;29578;51.946;5.874;2023-10-08T12:53:37;17.60;85.20
43920;DHT22;29578;51.946;5.874;2023-10-08T12:56:04;17.60;85.20
43920;DHT22;29578;51.946;5.874;2023-10-08T12:58:33;17.70;85.10
43920;DHT22;29578;51.946;5.874;2023-10-08T13:01:07;17.70;84.90
43920;DHT22;29578;51.946;5.874;2023-10-08T13:03:36;17.80;84.80
43920;DHT22;29578;51.946;5.874;2023-10-08T13:06:08;17.80;84.70
43920;DHT22;29578;51.946;5.874;2023-10-08T13:08:36;17.80;84.60
43920;DHT22;29578;51.946;5.874;2023-10-08T13:11:02;17.70;84.60
43920;DHT22;29578;51.946;5.874;2023-10-08T13:13:31;17.80;84.80
43920;DHT22;29578;51.946;5.874;2023-10-08T13:15:58;17.70;84.80
43920;DHT22;29578;51.946;5.874;2023-10-08T13:18:29;17.60;84.80
43920;DHT22;29578;51.946;5.874;2023-10-08T13:20:55;17.70;84.90
43920;DHT22;29578;51.946;5.874;2023-10-08T13:23:21;17.70;85.00
43920;DHT22;29578;51.946;5.874;2023-10-08T13:25:50;17.60;85.10
43920;DHT22;29578;51.946;5.874;2023-10-08T13:28:30;17.50;85.80
43920;DHT22;29578;51.946;5.874;2023-10-08T13:30:55;17.60;85.30
43920;DHT22;29578;51.946;5.874;2023-10-08T13:33:22;17.60;85.40
43920;DHT22;29578;51.946;5.874;2023-10-08T13:35:48;17.50;85.40
43920;DHT22;29578;51.946;5.874;2023-10-08T13:38:17;17.50;86.00
43920;DHT22;29578;51.946;5.874;2023-10-08T13:40:46;17.50;85.50
43920;DHT22;29578;51.946;5.874;2023-10-08T13:43:26;17.50;85.50
43920;DHT22;29578;51.946;5.874;2023-10-08T13:46:01;17.60;85.40
43920;DHT22;29578;51.946;5.874;2023-10-08T13:48:30;17.60;85.40
43920;DHT22;29578;51.946;5.874;2023-10-08T13:50:59;17.60;85.30
43920;DHT22;29578;51.946;5.874;2023-10-08T13:53:25;17.70;85.20
43920;DHT22;29578;51.946;5.874;2023-10-08T13:55:56;17.70;85.00
43920;DHT22;29578;51.946;5.874;2023-10-08T13:58:23;17.70;85.00
43920;DHT22;29578;51.946;5.874;2023-10-08T14:00:49;17.70;85.00
43920;DHT22;29578;51.946;5.874;2023-10-08T14:03:18;17.80;85.00
43920;DHT22;29578;51.946;5.874;2023-10-08T14:05:47;17.70;85.00
43920;DHT22;29578;51.946;5.874;2023-10-08T14:08:17;17.70;85.00
43920;DHT22;29578;51.946;5.874;2023-10-08T14:10:44;17.80;85.10
43920;DHT22;29578;51.946;5.874;2023-10-08T14:13:09;17.70;85.00
43920;DHT22;29578;51.946;5.874;2023-10-08T14:15:36;17.70;85.10
43920;DHT22;29578;51.946;5.874;2023-10-08T14:18:11;17.70;85.10
43920;DHT22;29578;51.946;5.874;2023-10-08T14:20:43;17.60;85.20
43920;DHT22;29578;51.946;5.874;2023-10-08T14:23:09;17.60;85.30
43920;DHT22;29578;51.946;5.874;2023-10-08T14:25:35;17.60;85.30
43920;DHT22;29578;51.946;5.874;2023-10-08T14:28:07;17.60;85.30
43920;DHT22;29578;51.946;5.874;2023-10-08T14:30:34;17.60;85.30
43920;DHT22;29578;51.946;5.874;2023-10-08T14:33:07;17.60;85.40
43920;DHT22;29578;51.946;5.874;2023-10-08T14:35:34;17.60;85.30
43920;DHT22;29578;51.946;5.874;2023-10-08T14:38:11;17.60;85.30
43920;DHT22;29578;51.946;5.874;2023-10-08T14:40:51;17.60;85.30
43920;DHT22;29578;51.946;5.874;2023-10-08T14:43:37;17.60;85.30
43920;DHT22;29578;51.946;5.874;2023-10-08T14:46:03;17.50;85.30
43920;DHT22;29578;51.946;5.874;2023-10-08T14:48:32;17.60;85.40
43920;DHT22;29578;51.946;5.874;2023-10-08T14:51:01;17.60;85.40
43920;DHT22;29578;51.946;5.874;2023-10-08T14:53:29;17.60;85.50
43920;DHT22;29578;51.946;5.874;2023-10-08T14:55:56;17.50;85.50
43920;DHT22;29578;51.946;5.874;2023-10-08T14:58:23;17.40;85.50
43920;DHT22;29578;51.946;5.874;2023-10-08T15:00:51;17.50;85.50
43920;DHT22;29578;51.946;5.874;2023-10-08T15:03:19;17.50;85.60
43920;DHT22;29578;51.946;5.874;2023-10-08T15:05:46;17.50;85.60
43920;DHT22;29578;51.946;5.874;2023-10-08T15:08:13;17.50;85.50
43920;DHT22;29578;51.946;5.874;2023-10-08T15:10:40;17.40;85.40
43920;DHT22;29578;51.946;5.874;2023-10-08T15:13:08;17.50;85.50
43920;DHT22;29578;51.946;5.874;2023-10-08T15:15:34;17.50;85.50
43920;DHT22;29578;51.946;5.874;2023-10-08T15:18:01;17.50;85.50
43920;DHT22;29578;51.946;5.874;2023-10-08T15:20:28;17.40;85.50
43920;DHT22;29578;51.946;5.874;2023-10-08T15:22:57;17.50;85.60
43920;DHT22;29578;51.946;5.874;2023-10-08T15:25:23;17.40;85.50
43920;DHT22;29578;51.946;5.874;2023-10-08T15:27:49;17.40;85.50
43920;DHT22;29578;51.946;5.874;2023-10-08T15:30:17;17.40;85.50
43920;DHT22;29578;51.946;5.874;2023-10-08T15:32:45;17.40;85.60
43920;DHT22;29578;51.946;5.874;2023-10-08T15:35:12;17.40;85.60
43920;DHT22;29578;51.946;5.874;2023-10-08T15:37:40;17.40;85.50
43920;DHT22;29578;51.946;5.874;2023-10-08T15:40:07;17.50;85.50
43920;DHT22;29578;51.946;5.874;2023-10-08T15:42:34;17.40;85.40
43920;DHT22;29578;51.946;5.874;2023-10-08T15:45:02;17.40;85.30
43920;DHT22;29578;51.946;5.874;2023-10-08T15:47:28;17.40;85.30
43920;DHT22;29578;51.946;5.874;2023-10-08T15:49:54;17.40;85.30
43920;DHT22;29578;51.946;5.874;2023-10-08T15:52:20;17.40;85.30